Meteo Giornale » Osservazioni meteo Italia » Decimomannu

ore: 15:55 - Osservazioni Meteo Decimomannu
Lat. 39° 21' N Lon. 8° 58' E Alt. 29 metri s.l.m.

poco_nuvoloso Europe/Rome

22 °C

Poco Nuvoloso

Temp. 24 Ore

6 °C

23 °C

Sud/Sud-Ovest

11.1 Km/h

Dew point 10 °C

Umidità 46 %

Visibilità  10 Km

Il sole sorge alle ore 06:19

Il sole tramonta alle ore 18:41

Data e Ora Cielo e Fenomeni T °C DP °C Um. % Pres. hPa Vis. km Vento km/h
Oggi h: 15:55 poco_nuvoloso Poco Nuvoloso 22 10 46 1019 10 S/SO 11.1
Oggi h: 14:55 nuvoloso Nuvoloso 23 7 35 1020 10 N 5.5
Oggi h: 13:55 poco_nuvoloso Poco Nuvoloso 22 8 40 1021 10 N/NO 7.4
Oggi h: 12:55 poco_nuvoloso Poco Nuvoloso 21 9 46 1022 10 N 5.5
Oggi h: 11:55 poco_nuvoloso Poco Nuvoloso 19 10 55 1023 10 N/NO 9.3
Oggi h: 10:55 sereno Sereno 18 9 55 1023 10 NO 7.4
Oggi h: 09:55 sereno Sereno 15 10 72 1023 10 NO 9.3
Oggi h: 07:55 sereno Sereno 8 6 87 1022 10 N/NO 7.4
Oggi h: 06:55 sereno Sereno 6 4 86 1022 10 N 5.5
Oggi h: 05:55 sereno Sereno 6 5 93 1022 10 N/NO 7.4
Oggi h: 04:55 sereno Sereno 6 5 93 1022 10 N 5.5
Oggi h: 03:55 sereno Sereno 7 5 87 1022 10 N/NO 7.4
Oggi h: 01:55 sereno Sereno 8 6 87 1022 10 N/NO 11.1
Oggi h: 00:55 sereno Sereno 8 7 93 1022 10 N/NO 7.4
Ieri h: 23:55 sereno Sereno 9 8 93 1022 10 N 5.5
Ieri h: 22:55 sereno Sereno 10 9 93 1022 10 N 5.5
Ieri h: 21:55 poco_nuvoloso Poco Nuvoloso 12 11 93 1022 10 N 3.7
Ieri h: 20:55 sereno Sereno 12 11 93 1022 10 N 3.7
Ieri h: 19:55 sereno Sereno 13 12 93 1022 10 N 5.5
Ieri h: 18:55 poco_nuvoloso Poco Nuvoloso 15 13 87 1021 10 S/SE 7.4
Ieri h: 17:55 poco_nuvoloso Poco Nuvoloso 16 13 82 1021 10 S/SE 13
Ieri h: 16:55 poco_nuvoloso Poco Nuvoloso 19 12 63 1020 10 SE 16.7